Change the Weather History Date:

Thursday, October 10, 2013

  Actual Average Record
Temperature  
Mean Temperature 47 °F -  
Max Temperature 50 °F 50 °F 59 °F (2014)
Min Temperature 44 °F 39 °F 23 °F (1968)
Degree Days  
Heating Degree Days 18    
Moisture  
Dew Point 40 °F    
Average Humidity 77    
Maximum Humidity 82    
Minimum Humidity 71    
Precipitation  
Precipitation 0.00 in - - ()
Sea Level Pressure  
Sea Level Pressure 29.99 in    
Wind  
Wind Speed 7 mph (ESE)    
Max Wind Speed 10 mph    
Max Gust Speed -    
Visibility 10 miles    
Events      
Averages and records for this station are not official NWS values.
T = Trace of Precipitation, MM = Missing Value Source: NWS Daily Summary

Daily Weather History Graph

Daily Weather History Graph

Search for Another Location

Airport or City:

Trip Planner

Search our weather history database for the weather conditions in past years. The results will help you decide how hot, cold, wet, or windy it might be!

Date:

Astronomy

Oct. 10, 2013 Rise Set
Actual Time 7:12 AM AKDT 5:59 PM AKDT
Civil Twilight 6:34 AM AKDT 6:37 PM AKDT
Nautical Twilight 5:50 AM AKDT 7:20 PM AKDT
Astronomical Twilight 5:06 AM AKDT 8:04 PM AKDT
Moon 1:53 PM AKDT (10/10) 10:03 PM AKDT (10/10)
Length of Visible Light 12h 02m
Length of Day
10h 47m
Waxing Crescent, 37% of the Moon is Illuminated
Oct 10
Waxing Crescent
Oct 11
First Quarter
Oct 18
Full
Oct 26
Last Quarter
Nov 3
New

Hourly Weather History & Observations

Time (AKDT) Temp. Windchill Dew Point Humidity Pressure Visibility Wind Dir Wind Speed Gust Speed Precip Events Conditions
12:16 AM 46.4 °F 43.5 °F 39.2 °F 76% 29.85 in 10.0 mi East 5.8 mph - N/A   Mostly Cloudy
12:36 AM 44.6 °F 42.2 °F 39.2 °F 81% 29.86 in 10.0 mi SE 4.6 mph - N/A   Overcast
12:56 AM 46.4 °F 42.9 °F 39.2 °F 76% 29.86 in 10.0 mi East 6.9 mph - N/A   Overcast
1:16 AM 44.6 °F 40.7 °F 39.2 °F 81% 29.87 in 10.0 mi East 6.9 mph - N/A   Overcast
1:36 AM 44.6 °F 40.2 °F 39.2 °F 81% 29.87 in 10.0 mi ESE 8.1 mph - N/A   Overcast
1:56 AM 44.6 °F 41.4 °F 39.2 °F 81% 29.88 in 10.0 mi ESE 5.8 mph - N/A   Overcast
2:16 AM 44.6 °F 40.7 °F 39.2 °F 81% 29.89 in 10.0 mi East 6.9 mph - N/A   Overcast
2:36 AM 44.6 °F 39.7 °F 39.2 °F 81% 29.89 in 10.0 mi East 9.2 mph - N/A   Overcast
2:56 AM 44.6 °F 40.2 °F 39.2 °F 81% 29.89 in 10.0 mi ESE 8.1 mph - N/A   Overcast
3:16 AM 44.6 °F 40.2 °F 39.2 °F 81% 29.89 in 10.0 mi East 8.1 mph - N/A   Overcast
3:36 AM 44.6 °F 40.7 °F 39.2 °F 81% 29.90 in 10.0 mi ESE 6.9 mph - N/A   Overcast
3:56 AM 44.6 °F 41.4 °F 39.2 °F 81% 29.90 in 10.0 mi ESE 5.8 mph - N/A   Overcast
4:16 AM 46.4 °F 42.4 °F 39.2 °F 76% 29.90 in 10.0 mi ESE 8.1 mph - N/A   Overcast
4:36 AM 46.4 °F 43.5 °F 39.2 °F 76% 29.91 in 10.0 mi ESE 5.8 mph - N/A   Overcast
4:56 AM 46.4 °F 42.9 °F 39.2 °F 76% 29.91 in 10.0 mi East 6.9 mph - N/A   Overcast
5:16 AM 46.4 °F 41.9 °F 39.2 °F 76% 29.92 in 10.0 mi East 9.2 mph - N/A   Overcast
5:36 AM 44.6 °F 41.4 °F 39.2 °F 81% 29.92 in 10.0 mi ESE 5.8 mph - N/A   Overcast
5:56 AM 44.6 °F 40.2 °F 39.2 °F 81% 29.93 in 10.0 mi East 8.1 mph - N/A   Overcast
6:16 AM 44.6 °F 40.7 °F 39.2 °F 81% 29.94 in 10.0 mi South 6.9 mph - N/A   Overcast
6:36 AM 44.6 °F 43.1 °F 39.2 °F 81% 29.94 in 10.0 mi SSE 3.5 mph - N/A   Overcast
6:56 AM 44.6 °F 39.2 °F 39.2 °F 81% 29.94 in 10.0 mi East 10.4 mph - N/A   Overcast
7:16 AM 44.6 °F 40.2 °F 39.2 °F 81% 29.95 in 10.0 mi SE 8.1 mph - N/A   Overcast
7:36 AM 44.6 °F 40.7 °F 39.2 °F 81% 29.95 in 10.0 mi SE 6.9 mph - N/A   Overcast
7:56 AM 44.6 °F 41.4 °F 39.2 °F 81% 29.95 in 10.0 mi ESE 5.8 mph - N/A   Mostly Cloudy
8:16 AM 46.4 °F 41.5 °F 39.2 °F 76% 29.96 in 10.0 mi East 10.4 mph - N/A   Mostly Cloudy
8:36 AM 44.6 °F 40.2 °F 39.2 °F 81% 29.96 in 10.0 mi SE 8.1 mph - N/A   Mostly Cloudy
8:56 AM 46.4 °F 42.4 °F 39.2 °F 76% 29.97 in 10.0 mi ESE 8.1 mph - N/A   Overcast
9:16 AM 46.4 °F 45.2 °F 39.2 °F 76% 29.98 in 10.0 mi SSE 3.5 mph - N/A   Overcast
9:36 AM 46.4 °F 42.4 °F 39.2 °F 76% 29.98 in 10.0 mi East 8.1 mph - N/A   Overcast
9:56 AM 46.4 °F 44.3 °F 39.2 °F 76% 29.99 in 10.0 mi SSE 4.6 mph - N/A   Overcast
10:16 AM 46.4 °F 43.5 °F 39.2 °F 76% 29.99 in 10.0 mi ESE 5.8 mph - N/A   Overcast
10:36 AM 46.4 °F 43.5 °F 39.2 °F 76% 30.00 in 10.0 mi ESE 5.8 mph - N/A   Overcast
10:56 AM 48.2 °F - 39.2 °F 71% 30.00 in 10.0 mi ESE 8.1 mph - N/A   Mostly Cloudy
11:16 AM 46.4 °F 42.4 °F 39.2 °F 76% 30.01 in 10.0 mi East 8.1 mph - N/A   Mostly Cloudy
11:36 AM 48.2 °F - 41.0 °F 76% 30.01 in 9.0 mi ESE 6.9 mph - N/A   Mostly Cloudy
11:56 AM 48.2 °F - 41.0 °F 76% 30.02 in 10.0 mi ESE 5.8 mph - N/A   Mostly Cloudy
12:16 PM 48.2 °F - 39.2 °F 71% 30.02 in 10.0 mi South 4.6 mph - N/A   Mostly Cloudy
12:36 PM 48.2 °F - 41.0 °F 76% 30.03 in 10.0 mi Calm Calm - N/A   Mostly Cloudy
12:56 PM 50.0 °F - 41.0 °F 71% 30.02 in 10.0 mi SSE 4.6 mph - N/A   Mostly Cloudy
1:16 PM 48.2 °F - 39.2 °F 71% 30.02 in 10.0 mi East 9.2 mph - N/A   Mostly Cloudy
1:36 PM 48.2 °F - 42.8 °F 82% 30.02 in 10.0 mi East 8.1 mph - N/A   Mostly Cloudy
1:56 PM 48.2 °F - 41.0 °F 76% 30.02 in 10.0 mi ESE 8.1 mph - N/A   Mostly Cloudy
2:16 PM 48.2 °F - 41.0 °F 76% 30.02 in 10.0 mi East 9.2 mph - N/A   Unknown
2:36 PM 48.2 °F - 39.2 °F 71% 30.03 in 10.0 mi SSE 5.8 mph - N/A   Mostly Cloudy
2:56 PM 48.2 °F - 41.0 °F 76% 30.03 in 10.0 mi ESE 4.6 mph - N/A   Mostly Cloudy
3:16 PM 48.2 °F - 41.0 °F 76% 30.03 in 10.0 mi East 5.8 mph - N/A   Mostly Cloudy
3:36 PM 48.2 °F - 41.0 °F 76% 30.04 in 10.0 mi ESE 5.8 mph - N/A   Mostly Cloudy
3:56 PM 48.2 °F - 39.2 °F 71% 30.04 in 10.0 mi East 5.8 mph - N/A   Overcast
4:16 PM 48.2 °F - 41.0 °F 76% 30.04 in 10.0 mi ESE 5.8 mph - N/A   Overcast
4:36 PM 48.2 °F - 39.2 °F 71% 30.04 in 10.0 mi ESE 4.6 mph - N/A   Overcast
4:56 PM 48.2 °F - 39.2 °F 71% 30.04 in 10.0 mi SE 4.6 mph - N/A   Mostly Cloudy
5:16 PM 46.4 °F 44.3 °F 39.2 °F 76% 30.04 in 10.0 mi SSW 4.6 mph - N/A   Mostly Cloudy
5:36 PM 46.4 °F 43.5 °F 41.0 °F 81% 30.04 in 10.0 mi ESE 5.8 mph - N/A   Mostly Cloudy
5:56 PM 46.4 °F 43.5 °F 41.0 °F 81% 30.04 in 10.0 mi SE 5.8 mph - N/A   Overcast
6:16 PM 46.4 °F 45.2 °F 41.0 °F 81% 30.04 in 10.0 mi SSE 3.5 mph - N/A   Overcast
6:36 PM 46.4 °F 43.5 °F 39.2 °F 76% 30.05 in 10.0 mi SE 5.8 mph - N/A   Overcast
6:56 PM 46.4 °F 42.9 °F 39.2 °F 76% 30.05 in 10.0 mi SSE 6.9 mph - N/A   Overcast
7:16 PM 46.4 °F - 39.2 °F 76% 30.05 in 10.0 mi Calm Calm - N/A   Overcast
7:36 PM 46.4 °F 45.2 °F 39.2 °F 76% 30.05 in 10.0 mi SE 3.5 mph - N/A   Overcast
7:56 PM 46.4 °F 42.9 °F 39.2 °F 76% 30.05 in 10.0 mi ESE 6.9 mph - N/A   Mostly Cloudy
8:16 PM 46.4 °F 43.5 °F 39.2 °F 76% 30.05 in 10.0 mi SE 5.8 mph - N/A   Mostly Cloudy
8:36 PM 46.4 °F 43.5 °F 39.2 °F 76% 30.05 in 10.0 mi SSE 5.8 mph - N/A   Mostly Cloudy
8:56 PM 46.4 °F 42.4 °F 39.2 °F 76% 30.06 in 10.0 mi SE 8.1 mph - N/A   Overcast
9:16 PM 46.4 °F 43.5 °F 39.2 °F 76% 30.06 in 10.0 mi SE 5.8 mph - N/A   Overcast
9:36 PM 46.4 °F 42.4 °F 39.2 °F 76% 30.07 in 10.0 mi ESE 8.1 mph - N/A   Overcast
9:56 PM 46.4 °F 42.9 °F 39.2 °F 76% 30.07 in 10.0 mi ESE 6.9 mph - N/A   Overcast
10:16 PM 46.4 °F 41.9 °F 41.0 °F 81% 30.07 in 10.0 mi East 9.2 mph - N/A   Overcast
10:36 PM 46.4 °F 41.9 °F 41.0 °F 81% 30.07 in 10.0 mi ESE 9.2 mph - N/A   Overcast
10:56 PM 46.4 °F 41.9 °F 39.2 °F 76% 30.08 in 10.0 mi ESE 9.2 mph - N/A   Overcast
11:16 PM 46.4 °F 41.5 °F 41.0 °F 81% 30.08 in 10.0 mi East 10.4 mph - N/A   Scattered Clouds
11:36 PM 46.4 °F 43.5 °F 39.2 °F 76% 30.08 in 10.0 mi ESE 5.8 mph - N/A   Partly Cloudy
11:56 PM 46.4 °F 42.4 °F 41.0 °F 81% 30.08 in 10.0 mi ESE 8.1 mph - N/A   Scattered Clouds